createdAt,value
2022-10-16T00:00:23.818Z,5.80
2022-10-16T00:05:25.434Z,10.05
2022-10-16T00:10:27.002Z,4.25
2022-10-16T00:15:28.614Z,5.97
2022-10-16T00:20:32.216Z,4.45
2022-10-16T00:25:33.952Z,8.38
2022-10-16T00:30:39.685Z,5.38
2022-10-16T00:35:41.197Z,9.20
2022-10-16T00:40:43.159Z,4.90
2022-10-16T00:45:44.682Z,6.50
2022-10-16T00:50:46.384Z,5.80
2022-10-16T00:55:48.694Z,6.43
2022-10-16T01:00:50.234Z,3.85
2022-10-16T01:06:04.683Z,5.93
2022-10-16T01:11:26.752Z,6.25
2022-10-16T01:16:39.845Z,4.47
2022-10-16T01:21:45.838Z,6.40
2022-10-16T01:27:09.080Z,4.63
2022-10-16T01:32:37.321Z,3.05
2022-10-16T01:37:49.946Z,8.40
2022-10-16T01:42:56.529Z,7.35
2022-10-16T01:48:01.477Z,4.20
2022-10-16T01:53:05.908Z,6.50
2022-10-16T01:58:11.118Z,6.38
2022-10-16T02:03:15.912Z,5.22
2022-10-16T02:08:17.626Z,5.30
2022-10-16T02:13:27.293Z,5.90
2022-10-16T02:18:31.501Z,5.78
2022-10-16T02:23:55.419Z,4.22
2022-10-16T02:29:02.824Z,3.38
2022-10-16T02:34:06.796Z,8.43
2022-10-16T02:39:09.513Z,5.30
2022-10-16T02:44:11.013Z,3.78
2022-10-16T02:49:12.623Z,3.08
2022-10-16T02:54:14.283Z,3.70
2022-10-16T02:59:15.803Z,2.72
2022-10-16T03:04:17.346Z,9.88
2022-10-16T03:09:18.860Z,4.43
2022-10-16T03:14:20.448Z,6.32
2022-10-16T03:19:22.200Z,3.75
2022-10-16T03:24:23.764Z,4.45
2022-10-16T03:29:26.717Z,4.20
2022-10-16T03:34:28.915Z,4.25
2022-10-16T03:39:30.481Z,5.95
2022-10-16T03:44:32.000Z,3.63
2022-10-16T03:49:33.582Z,6.20
2022-10-16T03:54:35.209Z,4.78
2022-10-16T03:59:36.732Z,6.15
2022-10-16T04:04:38.272Z,6.53
2022-10-16T04:09:39.817Z,4.20
2022-10-16T04:14:41.383Z,3.65
2022-10-16T04:19:43.042Z,6.88
2022-10-16T04:24:44.538Z,5.05
2022-10-16T04:29:46.088Z,8.57
2022-10-16T04:34:47.626Z,9.68
2022-10-16T04:39:49.213Z,7.28
2022-10-16T04:44:50.749Z,5.32
2022-10-16T04:49:52.299Z,6.10
2022-10-16T04:54:54.964Z,6.85
2022-10-16T04:59:56.508Z,3.95
2022-10-16T05:04:58.038Z,5.63
2022-10-16T05:09:59.598Z,4.93
2022-10-16T05:15:01.186Z,7.95
2022-10-16T05:20:03.234Z,6.07
2022-10-16T05:25:05.324Z,6.55
2022-10-16T05:30:09.950Z,9.32
2022-10-16T05:35:13.898Z,6.78
2022-10-16T05:40:15.837Z,9.77
2022-10-16T05:45:17.473Z,4.43
2022-10-16T05:50:19.186Z,9.00
2022-10-16T05:55:20.720Z,4.60
2022-10-16T06:00:22.242Z,7.63
2022-10-16T06:05:23.806Z,7.20
2022-10-16T06:10:25.337Z,6.93
2022-10-16T06:15:26.916Z,5.50
2022-10-16T06:20:28.567Z,7.18
2022-10-16T06:25:30.189Z,5.82
2022-10-16T06:30:31.723Z,5.85
2022-10-16T06:35:33.339Z,6.72
2022-10-16T06:40:34.848Z,8.13
2022-10-16T06:45:36.500Z,6.07
2022-10-16T06:50:38.093Z,6.65
2022-10-16T06:55:40.026Z,5.32
2022-10-16T07:00:41.513Z,7.88
2022-10-16T07:05:43.603Z,6.45
2022-10-16T07:10:45.115Z,5.88
2022-10-16T07:15:46.658Z,8.63
2022-10-16T07:20:48.279Z,4.32
2022-10-16T07:25:55.479Z,6.25
2022-10-16T07:30:56.999Z,5.85
2022-10-16T07:35:58.823Z,5.35
2022-10-16T07:41:02.814Z,12.10
2022-10-16T07:46:06.508Z,12.23
2022-10-16T07:51:08.667Z,7.57
2022-10-16T07:56:10.912Z,6.63
2022-10-16T08:01:15.426Z,7.57
2022-10-16T08:06:20.727Z,8.15
2022-10-16T08:11:25.196Z,9.07
2022-10-16T08:16:26.810Z,7.32
2022-10-16T08:21:28.349Z,8.18
2022-10-16T08:26:29.927Z,10.52
2022-10-16T08:31:31.508Z,8.88
2022-10-16T08:36:33.463Z,15.50
2022-10-16T08:41:54.804Z,12.10
2022-10-16T08:47:12.684Z,12.57
2022-10-16T08:52:15.072Z,10.95
2022-10-16T08:57:24.309Z,11.27
2022-10-16T09:02:32.711Z,13.90
2022-10-16T09:13:18.081Z,17.73
2022-10-16T09:18:41.785Z,11.65
2022-10-16T09:23:44.491Z,12.80
2022-10-16T09:28:46.339Z,14.55
2022-10-16T09:33:58.846Z,11.50
2022-10-16T09:39:08.421Z,13.73
2022-10-16T09:44:29.955Z,15.25
2022-10-16T09:49:31.636Z,19.33
2022-10-16T09:54:37.691Z,17.70
2022-10-16T09:59:48.038Z,17.33
2022-10-16T10:04:55.002Z,12.75
2022-10-16T10:09:58.349Z,17.98
2022-10-16T10:15:06.802Z,22.27
2022-10-16T10:20:39.174Z,22.05
2022-10-16T10:25:50.652Z,17.23
2022-10-16T10:31:25.335Z,15.57
2022-10-16T10:36:30.050Z,16.58
2022-10-16T10:41:31.997Z,17.02
2022-10-16T10:46:45.542Z,18.92
2022-10-16T10:52:16.370Z,19.30
2022-10-16T10:57:30.687Z,15.10
2022-10-16T11:03:10.062Z,13.38
2022-10-16T11:08:22.872Z,11.25
2022-10-16T11:13:44.547Z,18.55
2022-10-16T11:18:55.656Z,17.95
2022-10-16T11:24:18.177Z,19.23
2022-10-16T11:29:29.974Z,12.70
2022-10-16T11:34:41.215Z,16.60
2022-10-16T11:39:45.007Z,12.38
2022-10-16T11:45:07.543Z,19.23
2022-10-16T11:50:39.806Z,15.30
2022-10-16T11:55:46.200Z,15.90
2022-10-16T12:01:05.753Z,19.92
2022-10-16T12:06:28.501Z,17.30
2022-10-16T12:11:30.008Z,14.70
2022-10-16T12:16:31.594Z,17.92
2022-10-16T12:21:33.256Z,13.65
2022-10-16T12:26:39.800Z,16.13
2022-10-16T12:31:57.488Z,17.30
2022-10-16T12:37:13.661Z,14.20
2022-10-16T12:42:27.484Z,16.83
2022-10-16T12:47:32.303Z,19.77
2022-10-16T12:52:40.748Z,16.80
2022-10-16T12:57:44.862Z,14.57
2022-10-16T13:02:55.653Z,15.18
2022-10-16T13:08:19.958Z,13.40
2022-10-16T13:13:47.213Z,14.73
2022-10-16T13:19:16.999Z,15.55
2022-10-16T13:24:46.091Z,13.25
2022-10-16T13:29:54.456Z,13.25
2022-10-16T13:34:56.693Z,15.43
2022-10-16T13:40:21.689Z,14.23
2022-10-16T13:45:26.485Z,10.88
2022-10-16T13:50:28.030Z,10.77
2022-10-16T13:55:29.769Z,11.68
2022-10-16T14:00:32.762Z,13.77
2022-10-16T14:05:35.375Z,14.38
2022-10-16T14:10:37.013Z,13.20
2022-10-16T14:15:39.094Z,11.50
2022-10-16T14:20:40.660Z,9.57
2022-10-16T14:25:42.204Z,12.40
2022-10-16T14:30:53.261Z,10.32
2022-10-16T14:36:05.967Z,19.70
2022-10-16T14:41:08.395Z,15.15
2022-10-16T14:46:15.795Z,15.63
2022-10-16T14:56:25.552Z,9.25
2022-10-16T15:01:27.191Z,12.82
2022-10-16T15:06:28.845Z,12.23
2022-10-16T15:11:33.523Z,15.63
2022-10-16T15:16:35.119Z,15.70
2022-10-16T15:21:36.772Z,11.20
2022-10-16T15:26:38.321Z,11.23
2022-10-16T15:31:40.091Z,17.85
2022-10-16T15:36:41.706Z,8.80
2022-10-16T15:41:43.796Z,10.90
2022-10-16T15:46:45.401Z,10.38
2022-10-16T15:51:47.316Z,20.77
2022-10-16T15:56:48.827Z,11.55
2022-10-16T16:01:50.403Z,17.83
2022-10-16T16:06:52.000Z,16.52
2022-10-16T16:11:53.758Z,20.40
2022-10-16T16:16:56.383Z,19.02
2022-10-16T16:21:57.889Z,13.63
2022-10-16T16:26:59.471Z,12.57
2022-10-16T16:32:01.706Z,10.63
2022-10-16T16:37:03.615Z,20.60
2022-10-16T16:42:07.242Z,40.10
2022-10-16T16:47:08.824Z,16.02
2022-10-16T16:52:10.412Z,18.52
2022-10-16T16:57:11.948Z,24.77
2022-10-16T17:02:13.512Z,17.75
2022-10-16T17:07:15.053Z,20.13
2022-10-16T17:12:16.638Z,18.67
2022-10-16T17:17:18.202Z,19.02
2022-10-16T17:22:20.469Z,21.38
2022-10-16T17:27:22.816Z,20.30
2022-10-16T17:32:24.598Z,18.02
2022-10-16T17:37:26.459Z,20.90
2022-10-16T17:42:28.330Z,16.52
2022-10-16T17:47:30.184Z,32.25
2022-10-16T17:52:31.750Z,33.00
2022-10-16T17:57:33.295Z,24.08
2022-10-16T18:02:34.917Z,20.42
2022-10-16T18:07:36.888Z,16.88
2022-10-16T18:12:38.524Z,15.77
2022-10-16T18:17:40.140Z,37.70
2022-10-16T18:22:41.690Z,38.40
2022-10-16T18:27:43.256Z,20.67
2022-10-16T18:32:44.814Z,17.95
2022-10-16T18:37:46.395Z,13.38
2022-10-16T18:42:49.628Z,25.15
2022-10-16T18:47:51.226Z,16.60
2022-10-16T18:52:52.760Z,20.08
2022-10-16T18:57:55.284Z,15.90
2022-10-16T19:02:56.830Z,13.45
2022-10-16T19:07:58.640Z,37.10
2022-10-16T19:13:00.201Z,23.40
2022-10-16T19:18:01.737Z,15.35
2022-10-16T19:23:04.164Z,14.52
2022-10-16T19:28:08.719Z,12.40
2022-10-16T19:33:10.242Z,16.83
2022-10-16T19:38:11.824Z,16.05
2022-10-16T19:43:13.340Z,21.98
2022-10-16T19:48:15.206Z,16.02
2022-10-16T19:53:16.809Z,11.50
2022-10-16T19:58:18.411Z,11.40
2022-10-16T20:03:20.212Z,20.58
2022-10-16T20:08:22.772Z,13.05
2022-10-16T20:13:24.321Z,19.95
2022-10-16T20:18:25.899Z,19.98
2022-10-16T20:23:27.574Z,18.35
2022-10-16T20:28:29.202Z,12.65
2022-10-16T20:33:30.810Z,16.30
2022-10-16T20:38:32.418Z,13.18
2022-10-16T20:43:34.524Z,16.25
2022-10-16T20:48:37.259Z,19.70
2022-10-16T20:53:39.590Z,18.30
2022-10-16T20:58:42.099Z,14.52
2022-10-16T21:03:45.077Z,12.02
2022-10-16T21:08:46.695Z,12.60
2022-10-16T21:13:49.054Z,18.83
2022-10-16T21:18:50.997Z,19.95
2022-10-16T21:23:53.170Z,15.32
2022-10-16T21:29:06.889Z,18.25
2022-10-16T21:34:08.958Z,20.23
2022-10-16T21:39:16.668Z,13.35
2022-10-16T21:44:20.112Z,16.98
2022-10-16T21:49:21.652Z,19.00
2022-10-16T21:54:24.213Z,15.35
2022-10-16T21:59:25.773Z,18.25
2022-10-16T22:04:27.291Z,14.88
2022-10-16T22:09:28.901Z,16.70
2022-10-16T22:14:30.461Z,13.10
2022-10-16T22:19:32.032Z,18.10
2022-10-16T22:24:33.637Z,15.68
2022-10-16T22:29:35.214Z,18.88
2022-10-16T22:34:36.765Z,15.68
2022-10-16T22:39:38.311Z,18.45
2022-10-16T22:44:39.827Z,15.05
2022-10-16T22:49:41.401Z,10.73
2022-10-16T22:54:42.946Z,12.90
2022-10-16T22:59:44.483Z,11.63
2022-10-16T23:04:46.022Z,13.20
2022-10-16T23:09:47.545Z,15.88
2022-10-16T23:14:49.076Z,12.88
2022-10-16T23:19:50.607Z,14.68
2022-10-16T23:24:52.126Z,11.93
2022-10-16T23:29:53.711Z,13.57
2022-10-16T23:34:55.270Z,9.02
2022-10-16T23:39:56.778Z,12.55
2022-10-16T23:44:58.310Z,12.57
2022-10-16T23:49:59.871Z,10.88
2022-10-16T23:55:01.418Z,14.32
